createdAt,value
2018-03-16T00:00:23.563Z,1014.47
2018-03-16T00:01:50.568Z,1014.36
2018-03-16T00:03:17.770Z,1014.38
2018-03-16T00:04:45.121Z,1014.45
2018-03-16T00:06:12.035Z,1014.49
2018-03-16T00:07:39.190Z,1014.48
2018-03-16T00:09:06.363Z,1014.58
2018-03-16T00:10:33.397Z,1014.58
2018-03-16T00:12:00.469Z,1014.53
2018-03-16T00:13:27.689Z,1014.57
2018-03-16T00:14:55.890Z,1014.51
2018-03-16T00:16:22.034Z,1014.55
2018-03-16T00:17:49.191Z,1014.50
2018-03-16T00:19:16.362Z,1014.51
2018-03-16T00:20:43.448Z,1014.70
2018-03-16T00:22:10.623Z,1014.61
2018-03-16T00:23:37.715Z,1014.59
2018-03-16T00:25:04.720Z,1014.54
2018-03-16T00:26:31.977Z,1014.53
2018-03-16T00:27:59.078Z,1014.55
2018-03-16T00:29:26.278Z,1014.54
2018-03-16T00:30:53.453Z,1014.60
2018-03-16T00:32:20.605Z,1014.67
2018-03-16T00:33:47.570Z,1014.65
2018-03-16T00:35:14.705Z,1014.68
2018-03-16T00:36:41.930Z,1014.70
2018-03-16T00:38:08.936Z,1014.68
2018-03-16T00:39:36.010Z,1014.73
2018-03-16T00:41:03.238Z,1014.70
2018-03-16T00:42:30.296Z,1014.69
2018-03-16T00:43:57.584Z,1014.75
2018-03-16T00:45:24.614Z,1014.72
2018-03-16T00:46:51.775Z,1014.67
2018-03-16T00:48:19.099Z,1014.68
2018-03-16T00:49:46.185Z,1014.72
2018-03-16T00:51:13.278Z,1014.64
2018-03-16T00:52:40.409Z,1014.65
2018-03-16T00:54:07.659Z,1014.65
2018-03-16T00:55:34.524Z,1014.64
2018-03-16T00:57:01.753Z,1014.62
2018-03-16T00:58:28.836Z,1014.59
2018-03-16T00:59:56.072Z,1014.65
2018-03-16T01:01:23.416Z,1014.64
2018-03-16T01:02:50.682Z,1014.62
2018-03-16T01:04:17.765Z,1014.64
2018-03-16T01:05:44.764Z,1014.64
2018-03-16T01:07:11.989Z,1014.62
2018-03-16T01:08:39.003Z,1014.61
2018-03-16T01:10:06.077Z,1014.59
2018-03-16T01:11:33.311Z,1014.59
2018-03-16T01:13:00.382Z,1014.59
2018-03-16T01:14:27.655Z,1014.59
2018-03-16T01:15:54.532Z,1014.49
2018-03-16T01:17:21.650Z,1014.48
2018-03-16T01:18:48.723Z,1014.52
2018-03-16T01:20:15.797Z,1014.52
2018-03-16T01:21:42.857Z,1014.65
2018-03-16T01:23:10.000Z,1014.56
2018-03-16T01:24:37.046Z,1014.53
2018-03-16T01:26:04.286Z,1014.52
2018-03-16T01:27:31.392Z,1014.47
2018-03-16T01:28:58.636Z,1014.38
2018-03-16T01:30:25.646Z,1014.42
2018-03-16T01:31:52.748Z,1014.41
2018-03-16T01:33:19.826Z,1014.42
2018-03-16T01:34:47.006Z,1014.38
2018-03-16T01:36:14.170Z,1014.34
2018-03-16T01:37:40.899Z,1014.32
2018-03-16T01:39:07.926Z,1014.30
2018-03-16T01:40:35.034Z,1014.24
2018-03-16T01:42:02.108Z,1014.24
2018-03-16T01:43:29.084Z,1014.23
2018-03-16T01:44:56.248Z,1014.23
2018-03-16T01:46:23.428Z,1014.24
2018-03-16T01:47:50.553Z,1014.39
2018-03-16T01:49:17.625Z,1014.32
2018-03-16T01:50:44.814Z,1014.24
2018-03-16T01:52:11.952Z,1014.27
2018-03-16T01:53:38.893Z,1014.31
2018-03-16T01:55:05.980Z,1014.24
2018-03-16T01:56:33.113Z,1014.24
2018-03-16T01:58:00.184Z,1014.22
2018-03-16T01:59:27.401Z,1014.20
2018-03-16T02:00:54.522Z,1014.27
2018-03-16T02:02:21.631Z,1014.25
2018-03-16T02:03:48.644Z,1014.27
2018-03-16T02:05:15.715Z,1014.30
2018-03-16T02:06:42.947Z,1014.34
2018-03-16T02:08:10.003Z,1014.30
2018-03-16T02:09:37.127Z,1014.33
2018-03-16T02:11:04.179Z,1014.33
2018-03-16T02:12:31.224Z,1014.27
2018-03-16T02:13:58.451Z,1014.31
2018-03-16T02:15:25.458Z,1014.23
2018-03-16T02:16:52.504Z,1014.29
2018-03-16T02:18:19.571Z,1014.28
2018-03-16T02:19:46.510Z,1014.32
2018-03-16T02:21:13.681Z,1014.30
2018-03-16T02:22:40.673Z,1014.30
2018-03-16T02:24:07.712Z,1014.28
2018-03-16T02:25:34.785Z,1014.30
2018-03-16T02:27:01.916Z,1014.25
2018-03-16T02:28:28.886Z,1014.30
2018-03-16T02:29:56.014Z,1014.32
2018-03-16T02:31:23.266Z,1014.32
2018-03-16T02:32:50.328Z,1014.29
2018-03-16T02:34:17.500Z,1014.32
2018-03-16T02:35:44.661Z,1014.31
2018-03-16T02:37:11.872Z,1014.32
2018-03-16T02:38:39.025Z,1014.33
2018-03-16T02:40:06.159Z,1014.35
2018-03-16T02:41:33.244Z,1014.31
2018-03-16T02:43:00.389Z,1014.35
2018-03-16T02:44:27.499Z,1014.45
2018-03-16T02:45:54.442Z,1014.43
2018-03-16T02:47:21.659Z,1014.44
2018-03-16T02:48:48.691Z,1014.56
2018-03-16T02:50:15.907Z,1014.51
2018-03-16T02:51:43.120Z,1014.54
2018-03-16T02:53:10.051Z,1014.48
2018-03-16T02:54:37.205Z,1014.56
2018-03-16T02:56:04.147Z,1014.47
2018-03-16T02:57:31.145Z,1014.51
2018-03-16T02:58:58.282Z,1014.54
2018-03-16T03:00:25.365Z,1014.60
2018-03-16T03:01:52.571Z,1014.59
2018-03-16T03:03:19.702Z,1014.48
2018-03-16T03:04:46.641Z,1014.59
2018-03-16T03:06:13.975Z,1014.54
2018-03-16T03:07:41.118Z,1014.57
2018-03-16T03:09:08.112Z,1014.59
2018-03-16T03:10:35.242Z,1014.61
2018-03-16T03:12:02.225Z,1014.54
2018-03-16T03:13:29.165Z,1014.61
2018-03-16T03:14:56.240Z,1014.57
2018-03-16T03:16:23.401Z,1014.60
2018-03-16T03:17:50.485Z,1014.64
2018-03-16T03:19:17.663Z,1014.58
2018-03-16T03:20:44.747Z,1014.63
2018-03-16T03:22:11.708Z,1014.59
2018-03-16T03:23:38.911Z,1014.73
2018-03-16T03:25:05.774Z,1014.70
2018-03-16T03:26:33.045Z,1014.75
2018-03-16T03:28:00.221Z,1014.66
2018-03-16T03:29:27.267Z,1014.65
2018-03-16T03:30:54.398Z,1014.63
2018-03-16T03:32:21.710Z,1014.65
2018-03-16T03:33:48.675Z,1014.63
2018-03-16T03:35:15.884Z,1014.64
2018-03-16T03:36:43.007Z,1014.65
2018-03-16T03:38:09.933Z,1014.63
2018-03-16T03:39:37.026Z,1014.70
2018-03-16T03:41:03.923Z,1014.68
2018-03-16T03:42:30.876Z,1014.63
2018-03-16T03:43:58.011Z,1014.64
2018-03-16T03:45:25.243Z,1014.72
2018-03-16T03:46:52.234Z,1014.63
2018-03-16T03:48:19.442Z,1014.67
2018-03-16T03:49:46.720Z,1014.63
2018-03-16T03:51:13.975Z,1014.64
2018-03-16T03:52:40.941Z,1014.65
2018-03-16T03:54:08.163Z,1014.68
2018-03-16T03:55:35.186Z,1014.64
2018-03-16T03:57:02.203Z,1014.59
2018-03-16T03:58:29.226Z,1014.56
2018-03-16T03:59:56.442Z,1014.57
2018-03-16T04:01:23.491Z,1014.53
2018-03-16T04:02:50.523Z,1014.52
2018-03-16T04:04:17.426Z,1014.54
2018-03-16T04:05:44.622Z,1014.50
2018-03-16T04:07:11.525Z,1014.49
2018-03-16T04:08:38.618Z,1014.52
2018-03-16T04:10:05.823Z,1014.54
2018-03-16T04:11:32.825Z,1014.57
2018-03-16T04:13:00.098Z,1014.59
2018-03-16T04:14:27.287Z,1014.56
2018-03-16T04:15:54.409Z,1014.56
2018-03-16T04:17:21.586Z,1014.61
2018-03-16T04:18:48.724Z,1014.56
2018-03-16T04:20:15.792Z,1014.63
2018-03-16T04:21:42.818Z,1014.55
2018-03-16T04:23:09.966Z,1014.58
2018-03-16T04:24:37.051Z,1014.61
2018-03-16T04:26:04.240Z,1014.55
2018-03-16T04:27:31.348Z,1014.59
2018-03-16T04:28:58.554Z,1014.57
2018-03-16T04:30:25.674Z,1014.60
2018-03-16T04:31:52.744Z,1014.60
2018-03-16T04:33:19.890Z,1014.54
2018-03-16T04:34:47.113Z,1014.57
2018-03-16T04:36:14.173Z,1014.59
2018-03-16T04:37:41.275Z,1014.59
2018-03-16T04:39:08.456Z,1014.62
2018-03-16T04:40:35.464Z,1014.55
2018-03-16T04:42:02.627Z,1014.62
2018-03-16T04:43:29.806Z,1014.60
2018-03-16T04:44:56.953Z,1014.60
2018-03-16T04:46:24.169Z,1014.61
2018-03-16T04:47:51.244Z,1014.67
2018-03-16T04:49:18.395Z,1014.64
2018-03-16T04:50:45.720Z,1014.62
2018-03-16T04:52:12.765Z,1014.67
2018-03-16T04:53:39.912Z,1014.63
2018-03-16T04:55:06.966Z,1014.62
2018-03-16T04:56:33.943Z,1014.69
2018-03-16T04:58:01.007Z,1014.65
2018-03-16T04:59:28.185Z,1014.69
2018-03-16T05:00:55.384Z,1014.65
2018-03-16T05:02:22.490Z,1014.63
2018-03-16T05:03:49.498Z,1014.67
2018-03-16T05:05:16.614Z,1014.67
2018-03-16T05:06:43.677Z,1014.69
2018-03-16T05:08:10.718Z,1014.70
2018-03-16T05:09:40.844Z,1014.76
2018-03-16T05:11:04.691Z,1014.80
2018-03-16T05:12:32.046Z,1014.72
2018-03-16T05:13:58.941Z,1014.72
2018-03-16T05:15:26.193Z,1014.74
2018-03-16T05:16:53.312Z,1014.70
2018-03-16T05:18:20.534Z,1014.78
2018-03-16T05:19:47.410Z,1014.73
2018-03-16T05:21:14.494Z,1014.71
2018-03-16T05:22:41.567Z,1014.67
2018-03-16T05:24:08.632Z,1014.73
2018-03-16T05:25:35.572Z,1014.70
2018-03-16T05:27:02.780Z,1014.71
2018-03-16T05:28:29.876Z,1014.75
2018-03-16T05:29:57.130Z,1014.76
2018-03-16T05:31:24.155Z,1014.77
2018-03-16T05:32:51.279Z,1014.76
2018-03-16T05:34:18.505Z,1014.82
2018-03-16T05:35:45.557Z,1014.82
2018-03-16T05:37:12.618Z,1014.83
2018-03-16T05:38:39.721Z,1014.86
2018-03-16T05:40:06.734Z,1014.81
2018-03-16T05:41:33.839Z,1014.84
2018-03-16T05:43:01.000Z,1014.89
2018-03-16T05:44:28.206Z,1014.85
2018-03-16T05:45:55.284Z,1014.87
2018-03-16T05:47:22.288Z,1014.90
2018-03-16T05:48:49.513Z,1014.94
2018-03-16T05:50:16.676Z,1014.89
2018-03-16T05:51:43.672Z,1014.90
2018-03-16T05:53:10.792Z,1014.89
2018-03-16T05:54:38.009Z,1014.93
2018-03-16T05:56:04.946Z,1014.94
2018-03-16T05:57:32.128Z,1014.95
2018-03-16T05:58:59.218Z,1014.95
2018-03-16T06:00:26.238Z,1014.97
2018-03-16T06:01:53.521Z,1014.96
2018-03-16T06:03:20.530Z,1014.98
2018-03-16T06:04:47.718Z,1015.03
2018-03-16T06:06:14.864Z,1015.09
2018-03-16T06:07:41.967Z,1014.98
2018-03-16T06:09:09.053Z,1015.09
2018-03-16T06:10:35.982Z,1015.07
2018-03-16T06:12:03.277Z,1015.09
2018-03-16T06:13:30.396Z,1015.03
2018-03-16T06:14:57.601Z,1015.09
2018-03-16T06:16:24.946Z,1015.11
2018-03-16T06:17:52.025Z,1015.05
2018-03-16T06:19:19.256Z,1015.14
2018-03-16T06:20:46.300Z,1015.08
2018-03-16T06:22:13.548Z,1015.39
2018-03-16T06:23:40.518Z,1015.16
2018-03-16T06:25:07.747Z,1015.12
2018-03-16T06:26:34.628Z,1015.14
2018-03-16T06:28:01.934Z,1015.16
2018-03-16T06:29:28.893Z,1015.23
2018-03-16T06:30:56.062Z,1015.27
2018-03-16T06:32:23.186Z,1015.27
2018-03-16T06:33:50.179Z,1015.26
2018-03-16T06:35:17.514Z,1015.30
2018-03-16T06:36:44.580Z,1015.33
2018-03-16T06:38:11.629Z,1015.36
2018-03-16T06:39:38.874Z,1015.41
2018-03-16T06:41:05.757Z,1015.45
2018-03-16T06:42:32.832Z,1015.39
2018-03-16T06:43:59.846Z,1015.42
2018-03-16T06:45:26.968Z,1015.46
2018-03-16T06:46:54.161Z,1015.51
2018-03-16T06:48:21.223Z,1015.49
2018-03-16T06:49:48.334Z,1015.48
2018-03-16T06:51:15.497Z,1015.49
2018-03-16T06:52:42.676Z,1015.51
2018-03-16T06:54:09.658Z,1015.61
2018-03-16T06:55:36.624Z,1015.56
2018-03-16T06:57:03.859Z,1015.53
2018-03-16T06:58:31.002Z,1015.52
2018-03-16T06:59:58.230Z,1015.55
2018-03-16T07:01:25.235Z,1015.66
2018-03-16T07:02:52.212Z,1015.64
2018-03-16T07:04:19.203Z,1015.61
2018-03-16T07:05:46.441Z,1015.64
2018-03-16T07:07:13.534Z,1015.65
2018-03-16T07:08:40.702Z,1015.67
2018-03-16T07:10:07.701Z,1015.60
2018-03-16T07:11:34.755Z,1015.64
2018-03-16T07:13:01.734Z,1015.71
2018-03-16T07:14:28.795Z,1015.66
2018-03-16T07:15:55.963Z,1015.65
2018-03-16T07:17:23.153Z,1015.63
2018-03-16T07:18:50.392Z,1015.67
2018-03-16T07:20:17.600Z,1015.69
2018-03-16T07:21:44.508Z,1015.67
2018-03-16T07:23:11.532Z,1015.62
2018-03-16T07:24:38.626Z,1015.69
2018-03-16T07:26:05.583Z,1015.70
2018-03-16T07:27:32.672Z,1015.73
2018-03-16T07:28:59.924Z,1015.71
2018-03-16T07:30:27.117Z,1015.63
2018-03-16T07:31:54.266Z,1015.70
2018-03-16T07:33:21.414Z,1015.66
2018-03-16T07:34:48.543Z,1015.68
2018-03-16T07:36:15.862Z,1015.72
2018-03-16T07:37:42.793Z,1015.69
2018-03-16T07:39:09.854Z,1015.67
2018-03-16T07:40:36.814Z,1015.76
2018-03-16T07:42:04.124Z,1015.69
2018-03-16T07:43:31.206Z,1015.70
2018-03-16T07:44:58.126Z,1015.74
2018-03-16T07:46:25.230Z,1015.80
2018-03-16T07:47:52.160Z,1015.79
2018-03-16T07:49:19.172Z,1015.79
2018-03-16T07:50:46.271Z,1015.83
2018-03-16T07:52:13.238Z,1015.83
2018-03-16T07:53:40.203Z,1015.92
2018-03-16T07:55:07.321Z,1015.86
2018-03-16T07:56:34.396Z,1015.91
2018-03-16T07:58:01.527Z,1016.00
2018-03-16T07:59:28.632Z,1015.84
2018-03-16T08:00:55.896Z,1015.94
2018-03-16T08:02:23.017Z,1015.84
2018-03-16T08:03:50.269Z,1015.88
2018-03-16T08:05:17.378Z,1015.89
2018-03-16T08:06:44.273Z,1015.88
2018-03-16T08:08:11.400Z,1015.83
2018-03-16T08:09:38.530Z,1015.81
2018-03-16T08:11:05.823Z,1015.80
2018-03-16T08:12:32.901Z,1015.80
2018-03-16T08:14:00.041Z,1015.72
2018-03-16T08:15:27.332Z,1015.76
2018-03-16T08:16:54.521Z,1015.75
2018-03-16T08:18:21.742Z,1015.75
2018-03-16T08:19:48.909Z,1015.73
2018-03-16T08:21:16.098Z,1015.77
2018-03-16T08:22:43.057Z,1015.80
2018-03-16T08:24:10.185Z,1015.86
2018-03-16T08:25:37.203Z,1015.81
2018-03-16T08:27:04.577Z,1015.84
2018-03-16T08:28:31.387Z,1015.85
2018-03-16T08:29:58.396Z,1015.84
2018-03-16T08:31:25.653Z,1015.87
2018-03-16T08:32:52.827Z,1015.88
2018-03-16T08:34:20.146Z,1015.93
2018-03-16T08:35:47.233Z,1015.86
2018-03-16T08:37:14.060Z,1015.87
2018-03-16T08:38:41.256Z,1015.95
2018-03-16T08:40:08.196Z,1015.74
2018-03-16T08:41:35.199Z,1015.86
2018-03-16T08:43:02.397Z,1015.84
2018-03-16T08:44:29.556Z,1015.87
2018-03-16T08:45:56.567Z,1015.84
2018-03-16T08:47:23.620Z,1015.85
2018-03-16T08:48:50.684Z,1016.09
2018-03-16T08:50:17.933Z,1015.84
2018-03-16T08:51:44.937Z,1015.83
2018-03-16T08:53:12.116Z,1015.86
2018-03-16T08:54:39.176Z,1015.87
2018-03-16T08:56:05.833Z,1015.77
2018-03-16T08:57:33.076Z,1015.77
2018-03-16T08:59:00.213Z,1015.83
2018-03-16T09:00:27.032Z,1015.88
2018-03-16T09:01:54.094Z,1015.82
2018-03-16T09:03:21.212Z,1015.86
2018-03-16T09:04:48.342Z,1015.86
2018-03-16T09:06:15.422Z,1015.84
2018-03-16T09:07:42.648Z,1015.89
2018-03-16T09:09:09.575Z,1015.87
2018-03-16T09:10:36.717Z,1015.88
2018-03-16T09:12:03.679Z,1015.86
2018-03-16T09:13:30.962Z,1015.88
2018-03-16T09:14:58.091Z,1015.95
2018-03-16T09:16:25.207Z,1015.91
2018-03-16T09:17:52.295Z,1015.88
2018-03-16T09:19:19.561Z,1015.87
2018-03-16T09:20:46.625Z,1015.89
2018-03-16T09:22:13.752Z,1015.85
2018-03-16T09:23:40.796Z,1015.88
2018-03-16T09:25:07.764Z,1015.86
2018-03-16T09:26:34.737Z,1015.81
2018-03-16T09:28:01.942Z,1015.84
2018-03-16T09:29:28.960Z,1015.89
2018-03-16T09:30:56.121Z,1015.86
2018-03-16T09:32:23.282Z,1015.92
2018-03-16T09:33:50.341Z,1015.89
2018-03-16T09:35:17.409Z,1015.86
2018-03-16T09:36:44.506Z,1015.88
2018-03-16T09:38:11.661Z,1015.86
2018-03-16T09:39:38.851Z,1015.89
2018-03-16T09:41:06.075Z,1015.95
2018-03-16T09:42:33.105Z,1015.89
2018-03-16T09:44:00.262Z,1015.95
2018-03-16T09:45:27.187Z,1015.88
2018-03-16T09:46:54.450Z,1015.88
2018-03-16T09:48:21.643Z,1015.92
2018-03-16T09:49:48.804Z,1015.88
2018-03-16T09:51:15.964Z,1015.90
2018-03-16T09:52:43.175Z,1015.89
2018-03-16T09:54:10.300Z,1015.94
2018-03-16T09:55:37.329Z,1015.92
2018-03-16T09:57:04.360Z,1015.93
2018-03-16T09:58:31.435Z,1015.91
2018-03-16T09:59:58.512Z,1015.89
2018-03-16T10:01:25.651Z,1015.92
2018-03-16T10:02:52.639Z,1015.90
2018-03-16T10:04:19.611Z,1015.80
2018-03-16T10:05:46.809Z,1015.88
2018-03-16T10:07:14.019Z,1015.96
2018-03-16T10:08:41.110Z,1015.98
2018-03-16T10:10:08.262Z,1016.00
2018-03-16T10:11:35.264Z,1015.96
2018-03-16T10:13:02.369Z,1016.04
2018-03-16T10:14:29.531Z,1016.00
2018-03-16T10:15:56.689Z,1016.09
2018-03-16T10:17:23.711Z,1016.13
2018-03-16T10:18:50.808Z,1016.12
2018-03-16T10:20:17.789Z,1016.01
2018-03-16T10:21:44.910Z,1016.13
2018-03-16T10:23:12.131Z,1016.14
2018-03-16T10:24:39.209Z,1016.00
2018-03-16T10:26:06.400Z,1016.03
2018-03-16T10:27:33.519Z,1016.05
2018-03-16T10:29:00.595Z,1016.03
2018-03-16T10:30:27.735Z,1016.03
2018-03-16T10:31:54.672Z,1016.07
2018-03-16T10:33:21.874Z,1016.04
2018-03-16T10:34:49.118Z,1016.00
2018-03-16T10:36:16.277Z,1016.03
2018-03-16T10:37:43.460Z,1016.12
2018-03-16T10:39:10.652Z,1016.16
2018-03-16T10:40:37.743Z,1016.15
2018-03-16T10:42:04.802Z,1016.13
2018-03-16T10:43:31.828Z,1016.14
2018-03-16T10:44:58.763Z,1016.15
2018-03-16T10:46:25.941Z,1016.14
2018-03-16T10:47:53.169Z,1016.18
2018-03-16T10:49:20.398Z,1016.21
2018-03-16T10:50:47.237Z,1016.29
2018-03-16T10:52:14.461Z,1016.33
2018-03-16T10:53:41.363Z,1016.28
2018-03-16T10:55:08.505Z,1016.34
2018-03-16T10:56:35.456Z,1016.32
2018-03-16T10:58:02.490Z,1016.36
2018-03-16T10:59:29.822Z,1016.37
2018-03-16T11:00:56.760Z,1016.43
2018-03-16T11:02:23.830Z,1016.48
2018-03-16T11:03:50.995Z,1016.43
2018-03-16T11:05:18.308Z,1016.42
2018-03-16T11:06:45.331Z,1016.36
2018-03-16T11:08:12.451Z,1016.46
2018-03-16T11:09:39.346Z,1016.47
2018-03-16T11:11:06.314Z,1016.48
2018-03-16T11:12:33.613Z,1016.46
2018-03-16T11:14:00.596Z,1016.51
2018-03-16T11:15:27.720Z,1016.45
2018-03-16T11:16:54.999Z,1016.40
2018-03-16T11:18:22.140Z,1016.48
2018-03-16T11:19:49.283Z,1016.58
2018-03-16T11:21:16.506Z,1016.50
2018-03-16T11:22:43.649Z,1016.48
2018-03-16T11:24:10.789Z,1016.46
2018-03-16T11:25:37.800Z,1016.44
2018-03-16T11:27:04.816Z,1016.48
2018-03-16T11:28:31.873Z,1016.44
2018-03-16T11:29:59.034Z,1016.41
2018-03-16T11:31:26.024Z,1016.45
2018-03-16T11:32:53.182Z,1016.47
2018-03-16T11:34:20.196Z,1016.50
2018-03-16T11:35:47.413Z,1016.44
2018-03-16T11:37:14.461Z,1016.39
2018-03-16T11:38:41.421Z,1016.44
2018-03-16T11:40:08.496Z,1016.39
2018-03-16T11:41:35.413Z,1016.43
2018-03-16T11:43:02.414Z,1016.41
2018-03-16T11:44:29.589Z,1016.42
2018-03-16T11:45:56.710Z,1016.37
2018-03-16T11:47:23.784Z,1016.42
2018-03-16T11:48:51.134Z,1016.40
2018-03-16T11:50:18.366Z,1016.39
2018-03-16T11:51:45.421Z,1016.38
2018-03-16T11:53:12.711Z,1016.44
2018-03-16T11:54:39.808Z,1016.49
2018-03-16T11:56:06.916Z,1016.41
2018-03-16T11:57:34.094Z,1016.41
2018-03-16T11:59:01.141Z,1016.42
2018-03-16T12:00:28.202Z,1016.35
2018-03-16T12:01:55.425Z,1016.43
2018-03-16T12:03:22.635Z,1016.48
2018-03-16T12:04:49.743Z,1016.42
2018-03-16T12:06:16.749Z,1016.43
2018-03-16T12:07:43.718Z,1016.42
2018-03-16T12:09:10.952Z,1016.45
2018-03-16T12:10:37.949Z,1016.39
2018-03-16T12:12:05.036Z,1016.39
2018-03-16T12:13:32.165Z,1016.49
2018-03-16T12:14:59.289Z,1016.42
2018-03-16T12:16:26.525Z,1016.45
2018-03-16T12:17:53.694Z,1016.43
2018-03-16T12:19:20.895Z,1016.45
2018-03-16T12:20:48.040Z,1016.47
2018-03-16T12:22:15.168Z,1016.45
2018-03-16T12:23:42.250Z,1016.42
2018-03-16T12:25:09.268Z,1016.43
2018-03-16T12:26:36.312Z,1016.45
2018-03-16T12:28:03.577Z,1016.46
2018-03-16T12:29:30.796Z,1016.40
2018-03-16T12:30:57.923Z,1016.40
2018-03-16T12:32:25.169Z,1016.44
2018-03-16T12:33:52.110Z,1016.47
2018-03-16T12:35:19.244Z,1016.45
2018-03-16T12:36:46.519Z,1016.49
2018-03-16T12:38:13.528Z,1016.55
2018-03-16T12:39:40.596Z,1016.46
2018-03-16T12:41:07.694Z,1016.45
2018-03-16T12:42:34.627Z,1016.48
2018-03-16T12:44:01.781Z,1016.39
2018-03-16T12:45:28.787Z,1016.42
2018-03-16T12:46:55.937Z,1016.43
2018-03-16T12:48:23.172Z,1016.44
2018-03-16T12:49:50.077Z,1016.42
2018-03-16T12:51:17.481Z,1016.36
2018-03-16T12:52:44.449Z,1016.39
2018-03-16T12:54:11.608Z,1016.45
2018-03-16T12:55:38.576Z,1016.49
2018-03-16T12:57:05.433Z,1016.44
2018-03-16T12:58:32.679Z,1016.47
2018-03-16T12:59:59.859Z,1016.51
2018-03-16T13:01:27.087Z,1016.51
2018-03-16T13:02:54.292Z,1016.52
2018-03-16T13:04:21.615Z,1016.48
2018-03-16T13:05:48.672Z,1016.47
2018-03-16T13:07:15.732Z,1016.48
2018-03-16T13:08:42.979Z,1016.51
2018-03-16T13:10:10.113Z,1016.50
2018-03-16T13:11:37.356Z,1016.49
2018-03-16T13:13:04.300Z,1016.48
2018-03-16T13:14:31.322Z,1016.52
2018-03-16T13:15:58.502Z,1016.50
2018-03-16T13:17:25.488Z,1016.49
2018-03-16T13:18:52.448Z,1016.50
2018-03-16T13:20:19.609Z,1016.49
2018-03-16T13:21:46.972Z,1016.50
2018-03-16T13:23:14.095Z,1016.49
2018-03-16T13:24:41.229Z,1016.53
2018-03-16T13:26:08.013Z,1016.49
2018-03-16T13:27:35.127Z,1016.53
2018-03-16T13:29:02.277Z,1016.51
2018-03-16T13:30:29.374Z,1016.50
2018-03-16T13:31:56.410Z,1016.55
2018-03-16T13:33:23.432Z,1016.59
2018-03-16T13:34:50.483Z,1016.63
2018-03-16T13:36:17.530Z,1016.64
2018-03-16T13:37:44.750Z,1016.57
2018-03-16T13:39:12.033Z,1016.60
2018-03-16T13:40:38.992Z,1016.64
2018-03-16T13:42:08.944Z,1016.64
2018-03-16T13:43:33.122Z,1016.59
2018-03-16T13:45:00.248Z,1016.64
2018-03-16T13:46:27.339Z,1016.70
2018-03-16T13:47:54.549Z,1016.62
2018-03-16T13:49:21.648Z,1016.60
2018-03-16T13:50:48.819Z,1016.59
2018-03-16T13:52:16.066Z,1016.61
2018-03-16T13:53:43.087Z,1016.61
2018-03-16T13:55:10.260Z,1016.54
2018-03-16T13:56:37.243Z,1016.61
2018-03-16T13:58:04.500Z,1016.63
2018-03-16T13:59:31.635Z,1016.66
2018-03-16T14:00:58.608Z,1016.68
2018-03-16T14:02:25.883Z,1016.67
2018-03-16T14:03:52.948Z,1016.70
2018-03-16T14:05:20.225Z,1016.70
2018-03-16T14:06:47.279Z,1016.73
2018-03-16T14:08:14.457Z,1016.72
2018-03-16T14:09:41.352Z,1016.77
2018-03-16T14:11:08.368Z,1016.71
2018-03-16T14:12:35.190Z,1016.72
2018-03-16T14:14:02.345Z,1016.66
2018-03-16T14:15:29.369Z,1016.63
2018-03-16T14:16:56.386Z,1016.74
2018-03-16T14:18:23.480Z,1016.67
2018-03-16T14:19:50.704Z,1016.70
2018-03-16T14:21:17.814Z,1016.73
2018-03-16T14:22:44.940Z,1016.73
2018-03-16T14:24:12.160Z,1016.66
2018-03-16T14:25:39.300Z,1016.66
2018-03-16T14:27:06.313Z,1016.70
2018-03-16T14:28:33.340Z,1016.65
2018-03-16T14:30:00.520Z,1016.73
2018-03-16T14:31:27.792Z,1016.77
2018-03-16T14:32:54.762Z,1016.72
2018-03-16T14:34:21.874Z,1016.66
2018-03-16T14:35:48.784Z,1016.75
2018-03-16T14:37:15.789Z,1016.81
2018-03-16T14:38:42.978Z,1016.79
2018-03-16T14:40:09.772Z,1016.81
2018-03-16T14:41:36.985Z,1016.80
2018-03-16T14:43:04.069Z,1016.84
2018-03-16T14:44:30.863Z,1016.86
2018-03-16T14:45:57.767Z,1016.81
2018-03-16T14:47:24.643Z,1016.89
2018-03-16T14:48:51.829Z,1016.82
2018-03-16T14:50:18.956Z,1016.84
2018-03-16T14:51:46.065Z,1016.80
2018-03-16T14:53:13.182Z,1016.84
2018-03-16T14:54:40.257Z,1016.94
2018-03-16T14:56:07.309Z,1016.86
2018-03-16T14:57:34.622Z,1016.85
2018-03-16T14:59:01.715Z,1016.87
2018-03-16T15:00:28.774Z,1016.87
2018-03-16T15:01:55.912Z,1016.88
2018-03-16T15:03:23.312Z,1016.96
2018-03-16T15:04:50.406Z,1016.97
2018-03-16T15:06:17.448Z,1016.98
2018-03-16T15:07:44.658Z,1017.00
2018-03-16T15:09:11.642Z,1016.98
2018-03-16T15:10:38.831Z,1016.98
2018-03-16T15:12:06.038Z,1017.03
2018-03-16T15:13:33.149Z,1017.06
2018-03-16T15:15:00.391Z,1016.89
2018-03-16T15:16:27.506Z,1016.95
2018-03-16T15:17:54.655Z,1016.89
2018-03-16T15:19:21.802Z,1016.98
2018-03-16T15:20:48.653Z,1016.94
2018-03-16T15:22:15.587Z,1016.97
2018-03-16T15:23:42.753Z,1017.02
2018-03-16T15:25:09.944Z,1016.99
2018-03-16T15:26:37.217Z,1016.93
2018-03-16T15:28:04.160Z,1017.00
2018-03-16T15:29:31.238Z,1016.98
2018-03-16T15:30:58.496Z,1016.95
2018-03-16T15:32:25.311Z,1016.97
2018-03-16T15:33:52.333Z,1016.96
2018-03-16T15:35:19.552Z,1017.00
2018-03-16T15:36:46.262Z,1017.00
2018-03-16T15:38:13.471Z,1017.00
2018-03-16T15:39:40.347Z,1017.02
2018-03-16T15:41:07.307Z,1017.03
2018-03-16T15:42:34.435Z,1017.04
2018-03-16T15:44:01.418Z,1017.02
2018-03-16T15:45:28.420Z,1017.09
2018-03-16T15:46:55.732Z,1017.11
2018-03-16T15:48:22.603Z,1017.17
2018-03-16T15:49:49.627Z,1017.05
2018-03-16T15:51:16.642Z,1017.13
2018-03-16T15:52:43.977Z,1017.17
2018-03-16T15:54:10.651Z,1017.13
2018-03-16T15:55:37.607Z,1017.20
2018-03-16T15:57:04.547Z,1017.26
2018-03-16T15:58:31.812Z,1017.18
2018-03-16T15:59:58.795Z,1017.22
2018-03-16T16:01:25.474Z,1017.29
2018-03-16T16:02:52.664Z,1017.32
2018-03-16T16:04:19.747Z,1017.27
2018-03-16T16:05:46.636Z,1017.32
2018-03-16T16:07:13.782Z,1017.28
2018-03-16T16:08:40.910Z,1017.40
2018-03-16T16:10:07.896Z,1017.41
2018-03-16T16:11:34.549Z,1017.42
2018-03-16T16:13:01.597Z,1017.50
2018-03-16T16:14:28.756Z,1017.44
2018-03-16T16:15:55.581Z,1017.54
2018-03-16T16:17:22.687Z,1017.60
2018-03-16T16:18:49.627Z,1017.58
2018-03-16T16:20:16.442Z,1017.64
2018-03-16T16:21:43.550Z,1017.60
2018-03-16T16:23:13.733Z,1017.56
2018-03-16T16:24:37.712Z,1017.58
2018-03-16T16:26:04.605Z,1017.61
2018-03-16T16:27:31.800Z,1017.64
2018-03-16T16:28:58.924Z,1017.65
2018-03-16T16:30:25.884Z,1017.59
2018-03-16T16:31:53.137Z,1017.67
2018-03-16T16:33:19.948Z,1017.68
2018-03-16T16:34:47.077Z,1017.70
2018-03-16T16:36:14.101Z,1017.75
2018-03-16T16:37:40.890Z,1017.77
2018-03-16T16:39:07.974Z,1017.88
2018-03-16T16:40:34.748Z,1017.93
2018-03-16T16:42:01.914Z,1017.92
2018-03-16T16:43:28.924Z,1017.94
2018-03-16T16:44:55.830Z,1018.05
2018-03-16T16:46:22.593Z,1018.08
2018-03-16T16:47:49.274Z,1018.12
2018-03-16T16:49:16.271Z,1018.12
2018-03-16T16:50:43.298Z,1018.16
2018-03-16T16:52:10.315Z,1018.18
2018-03-16T16:53:37.260Z,1018.17
2018-03-16T16:55:04.090Z,1018.19
2018-03-16T16:56:31.113Z,1018.26
2018-03-16T16:57:58.231Z,1018.23
2018-03-16T16:59:25.143Z,1018.27
2018-03-16T17:00:52.232Z,1018.32
2018-03-16T17:02:19.110Z,1018.26
2018-03-16T17:03:46.123Z,1018.39
2018-03-16T17:05:13.035Z,1018.54
2018-03-16T17:06:40.100Z,1018.37
2018-03-16T17:08:06.881Z,1018.42
2018-03-16T17:09:34.034Z,1018.44
2018-03-16T17:11:00.810Z,1018.54
2018-03-16T17:12:28.022Z,1018.52
2018-03-16T17:13:55.136Z,1018.58
2018-03-16T17:15:22.076Z,1018.68
2018-03-16T17:16:49.136Z,1018.62
2018-03-16T17:18:16.075Z,1018.73
2018-03-16T17:19:43.191Z,1018.73
2018-03-16T17:21:10.400Z,1018.76
2018-03-16T17:22:37.404Z,1018.68
2018-03-16T17:24:04.190Z,1018.70
2018-03-16T17:25:31.260Z,1018.70
2018-03-16T17:26:58.279Z,1018.71
2018-03-16T17:28:25.333Z,1018.75
2018-03-16T17:29:52.417Z,1018.76
2018-03-16T17:31:19.417Z,1018.77
2018-03-16T17:32:46.476Z,1018.80